sensor_id;sensor_type;location;lat;lon;timestamp;pressure;altitude;pressure_sealevel;temperature;humidity
39129;BME280;24864;49.940;19.770;2022-09-09T00:00:15;97734.66;;;16.21;100.00
39129;BME280;24864;49.940;19.770;2022-09-09T00:03:11;97727.19;;;16.11;100.00
39129;BME280;24864;49.940;19.770;2022-09-09T00:05:44;97726.78;;;16.09;100.00
39129;BME280;24864;49.940;19.770;2022-09-09T00:08:19;97724.03;;;16.09;100.00
39129;BME280;24864;49.940;19.770;2022-09-09T00:10:51;97720.50;;;16.12;100.00
39129;BME280;24864;49.940;19.770;2022-09-09T00:13:25;97725.59;;;16.10;100.00
39129;BME280;24864;49.940;19.770;2022-09-09T00:16:01;97729.94;;;16.18;100.00
39129;BME280;24864;49.940;19.770;2022-09-09T00:18:44;97729.16;;;16.06;100.00
39129;BME280;24864;49.940;19.770;2022-09-09T00:21:15;97730.72;;;16.08;100.00
39129;BME280;24864;49.940;19.770;2022-09-09T00:23:47;97731.50;;;16.04;100.00
39129;BME280;24864;49.940;19.770;2022-09-09T00:26:22;97729.94;;;16.07;100.00
39129;BME280;24864;49.940;19.770;2022-09-09T00:28:59;97727.97;;;16.00;100.00
39129;BME280;24864;49.940;19.770;2022-09-09T00:31:31;97726.00;;;16.12;100.00
39129;BME280;24864;49.940;19.770;2022-09-09T00:34:05;97731.50;;;16.04;100.00
39129;BME280;24864;49.940;19.770;2022-09-09T00:36:38;97730.72;;;16.04;100.00
39129;BME280;24864;49.940;19.770;2022-09-09T00:39:12;97720.47;;;15.90;100.00
39129;BME280;24864;49.940;19.770;2022-09-09T00:41:51;97741.72;;;16.11;100.00
39129;BME280;24864;49.940;19.770;2022-09-09T00:44:31;97746.44;;;16.11;100.00
39129;BME280;24864;49.940;19.770;2022-09-09T00:47:24;97746.44;;;16.18;100.00
39129;BME280;24864;49.940;19.770;2022-09-09T00:50:00;97740.97;;;16.21;100.00
39129;BME280;24864;49.940;19.770;2022-09-09T00:52:36;97754.72;;;16.25;100.00
39129;BME280;24864;49.940;19.770;2022-09-09T00:55:12;97757.88;;;16.24;100.00
39129;BME280;24864;49.940;19.770;2022-09-09T00:57:43;97757.06;;;16.27;100.00
39129;BME280;24864;49.940;19.770;2022-09-09T01:00:19;97760.63;;;16.20;100.00
39129;BME280;24864;49.940;19.770;2022-09-09T01:02:56;97760.63;;;16.27;100.00
39129;BME280;24864;49.940;19.770;2022-09-09T01:05:34;97753.53;;;16.26;100.00
39129;BME280;24864;49.940;19.770;2022-09-09T01:08:13;97755.50;;;16.29;100.00
39129;BME280;24864;49.940;19.770;2022-09-09T01:10:49;97759.06;;;16.33;100.00
39129;BME280;24864;49.940;19.770;2022-09-09T01:13:22;97770.81;;;16.19;100.00
39129;BME280;24864;49.940;19.770;2022-09-09T01:15:53;97761.41;;;16.28;100.00
39129;BME280;24864;49.940;19.770;2022-09-09T01:18:31;97760.63;;;16.27;100.00
39129;BME280;24864;49.940;19.770;2022-09-09T01:21:05;97760.63;;;16.27;100.00
39129;BME280;24864;49.940;19.770;2022-09-09T01:23:49;97775.16;;;16.31;100.00
39129;BME280;24864;49.940;19.770;2022-09-09T01:26:26;97775.16;;;16.31;100.00
39129;BME280;24864;49.940;19.770;2022-09-09T01:28:55;97777.09;;;16.31;100.00
39129;BME280;24864;49.940;19.770;2022-09-09T01:31:27;97776.72;;;16.21;100.00
39129;BME280;24864;49.940;19.770;2022-09-09T01:33:56;97780.25;;;16.22;100.00
39129;BME280;24864;49.940;19.770;2022-09-09T01:36:28;97786.16;;;16.24;100.00
39129;BME280;24864;49.940;19.770;2022-09-09T01:38:56;97785.38;;;16.20;100.00
39129;BME280;24864;49.940;19.770;2022-09-09T01:41:26;97787.69;;;16.11;100.00
39129;BME280;24864;49.940;19.770;2022-09-09T01:43:55;97788.88;;;16.13;100.00
39129;BME280;24864;49.940;19.770;2022-09-09T01:46:23;97790.44;;;16.03;100.00
39129;BME280;24864;49.940;19.770;2022-09-09T01:48:52;97783.75;;;16.04;100.00
39129;BME280;24864;49.940;19.770;2022-09-09T01:51:20;97793.56;;;16.02;100.00
39129;BME280;24864;49.940;19.770;2022-09-09T01:53:49;97799.06;;;15.95;100.00
39129;BME280;24864;49.940;19.770;2022-09-09T01:56:31;97793.56;;;15.98;100.00
39129;BME280;24864;49.940;19.770;2022-09-09T01:59:10;97797.06;;;15.95;100.00
39129;BME280;24864;49.940;19.770;2022-09-09T02:01:53;97809.25;;;15.83;100.00
39129;BME280;24864;49.940;19.770;2022-09-09T02:04:36;97797.44;;;15.86;100.00
39129;BME280;24864;49.940;19.770;2022-09-09T02:07:14;97804.50;;;15.84;100.00
39129;BME280;24864;49.940;19.770;2022-09-09T02:09:47;97809.19;;;15.80;100.00
39129;BME280;24864;49.940;19.770;2022-09-09T02:12:23;97803.66;;;15.72;100.00
39129;BME280;24864;49.940;19.770;2022-09-09T02:14:55;97817.03;;;15.78;100.00
39129;BME280;24864;49.940;19.770;2022-09-09T02:17:27;97816.25;;;15.73;100.00
39129;BME280;24864;49.940;19.770;2022-09-09T02:20:03;97813.06;;;15.68;100.00
39129;BME280;24864;49.940;19.770;2022-09-09T02:22:33;97811.50;;;15.70;100.00
39129;BME280;24864;49.940;19.770;2022-09-09T02:25:04;97800.06;;;15.54;100.00
39129;BME280;24864;49.940;19.770;2022-09-09T02:27:34;97822.47;;;15.63;100.00
39129;BME280;24864;49.940;19.770;2022-09-09T02:30:04;97824.03;;;15.61;100.00
39129;BME280;24864;49.940;19.770;2022-09-09T02:32:34;97827.94;;;15.56;100.00
39129;BME280;24864;49.940;19.770;2022-09-09T02:35:07;97834.63;;;15.55;100.00
39129;BME280;24864;49.940;19.770;2022-09-09T02:37:39;97834.97;;;15.50;100.00
39129;BME280;24864;49.940;19.770;2022-09-09T02:40:11;97830.25;;;15.47;100.00
39129;BME280;24864;49.940;19.770;2022-09-09T02:42:42;97832.53;;;15.37;100.00
39129;BME280;24864;49.940;19.770;2022-09-09T02:45:12;97837.28;;;15.40;100.00
39129;BME280;24864;49.940;19.770;2022-09-09T02:47:45;97834.91;;;15.39;100.00
39129;BME280;24864;49.940;19.770;2022-09-09T02:50:17;97840.41;;;15.39;100.00
39129;BME280;24864;49.940;19.770;2022-09-09T02:52:57;97850.66;;;15.46;100.00
39129;BME280;24864;49.940;19.770;2022-09-09T02:55:35;97851.47;;;15.50;100.00
39129;BME280;24864;49.940;19.770;2022-09-09T02:58:09;97856.97;;;15.50;100.00
39129;BME280;24864;49.940;19.770;2022-09-09T03:00:39;97856.19;;;15.53;100.00
39129;BME280;24864;49.940;19.770;2022-09-09T03:03:08;97860.09;;;15.52;100.00
39129;BME280;24864;49.940;19.770;2022-09-09T03:05:37;97850.22;;;15.43;100.00
39129;BME280;24864;49.940;19.770;2022-09-09T03:08:06;97867.97;;;15.50;100.00
39129;BME280;24864;49.940;19.770;2022-09-09T03:10:34;97860.09;;;15.52;100.00
39129;BME280;24864;49.940;19.770;2022-09-09T03:13:03;97861.69;;;15.53;100.00
39129;BME280;24864;49.940;19.770;2022-09-09T03:15:33;97860.91;;;15.52;100.00
39129;BME280;24864;49.940;19.770;2022-09-09T03:18:02;97860.94;;;15.56;100.00
39129;BME280;24864;49.940;19.770;2022-09-09T03:20:30;97859.34;;;15.55;100.00
39129;BME280;24864;49.940;19.770;2022-09-09T03:22:59;97857.75;;;15.54;100.00
39129;BME280;24864;49.940;19.770;2022-09-09T03:25:28;97856.19;;;15.53;100.00
39129;BME280;24864;49.940;19.770;2022-09-09T03:27:56;97861.69;;;15.53;100.00
39129;BME280;24864;49.940;19.770;2022-09-09T03:30:26;97859.31;;;15.51;100.00
39129;BME280;24864;49.940;19.770;2022-09-09T03:32:55;97859.72;;;15.50;100.00
39129;BME280;24864;49.940;19.770;2022-09-09T03:35:23;97860.88;;;15.49;100.00
39129;BME280;24864;49.940;19.770;2022-09-09T03:37:51;97850.66;;;15.46;100.00
39129;BME280;24864;49.940;19.770;2022-09-09T03:40:21;97852.19;;;15.43;100.00
39129;BME280;24864;49.940;19.770;2022-09-09T03:42:49;97865.56;;;15.45;100.00
39129;BME280;24864;49.940;19.770;2022-09-09T03:45:17;97865.56;;;15.45;100.00
39129;BME280;24864;49.940;19.770;2022-09-09T03:47:46;97870.28;;;15.48;100.00
39129;BME280;24864;49.940;19.770;2022-09-09T03:50:15;97873.47;;;15.50;100.00
39129;BME280;24864;49.940;19.770;2022-09-09T03:52:43;97872.25;;;15.51;100.00
39129;BME280;24864;49.940;19.770;2022-09-09T03:55:10;97864.81;;;15.51;100.00
39129;BME280;24864;49.940;19.770;2022-09-09T03:57:38;97874.22;;;15.50;100.00
39129;BME280;24864;49.940;19.770;2022-09-09T04:00:08;97868.34;;;15.52;100.00
39129;BME280;24864;49.940;19.770;2022-09-09T04:02:36;97873.09;;;15.55;100.00
39129;BME280;24864;49.940;19.770;2022-09-09T04:05:05;97873.88;;;15.55;100.00
39129;BME280;24864;49.940;19.770;2022-09-09T04:07:34;97877.41;;;15.56;100.00
39129;BME280;24864;49.940;19.770;2022-09-09T04:10:03;97875.44;;;15.56;100.00
39129;BME280;24864;49.940;19.770;2022-09-09T04:12:31;97872.69;;;15.56;100.00
39129;BME280;24864;49.940;19.770;2022-09-09T04:14:59;97875.06;;;15.58;100.00
39129;BME280;24864;49.940;19.770;2022-09-09T04:17:28;97871.91;;;15.56;100.00
39129;BME280;24864;49.940;19.770;2022-09-09T04:19:56;97874.31;;;15.61;100.00
39129;BME280;24864;49.940;19.770;2022-09-09T04:22:24;97873.50;;;15.64;100.00
39129;BME280;24864;49.940;19.770;2022-09-09T04:24:54;97875.09;;;15.65;100.00
39129;BME280;24864;49.940;19.770;2022-09-09T04:27:21;97880.97;;;15.64;100.00
39129;BME280;24864;49.940;19.770;2022-09-09T04:29:49;97873.94;;;15.66;100.00
39129;BME280;24864;49.940;19.770;2022-09-09T04:32:18;97867.28;;;15.71;100.00
39129;BME280;24864;49.940;19.770;2022-09-09T04:34:45;97868.06;;;15.71;100.00
39129;BME280;24864;49.940;19.770;2022-09-09T04:37:14;97871.19;;;15.70;100.00
39129;BME280;24864;49.940;19.770;2022-09-09T04:39:43;97869.63;;;15.69;100.00
39129;BME280;24864;49.940;19.770;2022-09-09T04:42:13;97874.44;;;15.86;100.00
39129;BME280;24864;49.940;19.770;2022-09-09T04:44:41;97866.63;;;15.92;100.00
39129;BME280;24864;49.940;19.770;2022-09-09T04:47:09;97870.44;;;15.80;100.00
39129;BME280;24864;49.940;19.770;2022-09-09T04:49:37;97868.09;;;15.79;100.00
39129;BME280;24864;49.940;19.770;2022-09-09T04:52:05;97874.06;;;15.88;100.00
39129;BME280;24864;49.940;19.770;2022-09-09T04:54:33;97870.16;;;15.96;100.00
39129;BME280;24864;49.940;19.770;2022-09-09T04:57:01;97882.22;;;15.73;100.00
39129;BME280;24864;49.940;19.770;2022-09-09T04:59:31;97882.31;;;15.84;100.00
39129;BME280;24864;49.940;19.770;2022-09-09T05:01:58;97883.06;;;15.85;100.00
39129;BME280;24864;49.940;19.770;2022-09-09T05:04:30;97888.22;;;15.94;100.00
39129;BME280;24864;49.940;19.770;2022-09-09T05:06:58;97892.50;;;15.84;100.00
39129;BME280;24864;49.940;19.770;2022-09-09T05:09:25;97885.47;;;15.94;100.00
39129;BME280;24864;49.940;19.770;2022-09-09T05:11:54;97890.59;;;15.99;100.00
39129;BME280;24864;49.940;19.770;2022-09-09T05:14:22;97895.31;;;15.98;100.00
39129;BME280;24864;49.940;19.770;2022-09-09T05:16:51;97898.88;;;16.06;100.00
39129;BME280;24864;49.940;19.770;2022-09-09T05:19:19;97894.19;;;16.06;100.00
39129;BME280;24864;49.940;19.770;2022-09-09T05:21:47;97895.34;;;16.05;100.00
39129;BME280;24864;49.940;19.770;2022-09-09T05:24:17;97889.41;;;15.96;100.00
39129;BME280;24864;49.940;19.770;2022-09-09T05:26:45;97901.97;;;15.97;100.00
39129;BME280;24864;49.940;19.770;2022-09-09T05:29:13;97890.19;;;15.89;100.00
39129;BME280;24864;49.940;19.770;2022-09-09T05:31:40;97893.31;;;15.88;100.00
39129;BME280;24864;49.940;19.770;2022-09-09T05:34:10;97887.81;;;15.88;100.00
39129;BME280;24864;49.940;19.770;2022-09-09T05:36:38;97894.88;;;15.89;100.00
39129;BME280;24864;49.940;19.770;2022-09-09T05:39:06;97897.63;;;15.89;100.00
39129;BME280;24864;49.940;19.770;2022-09-09T05:41:34;97900.41;;;15.96;100.00
39129;BME280;24864;49.940;19.770;2022-09-09T05:44:02;97894.13;;;15.96;100.00
39129;BME280;24864;49.940;19.770;2022-09-09T05:46:30;97900.06;;;16.01;100.00
39129;BME280;24864;49.940;19.770;2022-09-09T05:48:58;97907.94;;;16.06;100.00
39129;BME280;24864;49.940;19.770;2022-09-09T05:51:29;97915.44;;;16.20;100.00
39129;BME280;24864;49.940;19.770;2022-09-09T05:53:57;97913.13;;;16.26;100.00
39129;BME280;24864;49.940;19.770;2022-09-09T05:56:27;97909.19;;;16.24;100.00
39129;BME280;24864;49.940;19.770;2022-09-09T05:58:56;97919.84;;;16.40;100.00
39129;BME280;24864;49.940;19.770;2022-09-09T06:01:25;97929.69;;;16.48;100.00
39129;BME280;24864;49.940;19.770;2022-09-09T06:03:54;97916.69;;;16.37;100.00
39129;BME280;24864;49.940;19.770;2022-09-09T06:06:24;97934.41;;;16.51;100.00
39129;BME280;24864;49.940;19.770;2022-09-09T06:08:55;97942.31;;;16.60;100.00
39129;BME280;24864;49.940;19.770;2022-09-09T06:11:26;97935.63;;;16.57;100.00
39129;BME280;24864;49.940;19.770;2022-09-09T06:13:54;97945.47;;;16.65;100.00
39129;BME280;24864;49.940;19.770;2022-09-09T06:16:23;97945.47;;;16.76;100.00
39129;BME280;24864;49.940;19.770;2022-09-09T06:18:52;97935.69;;;16.93;100.00
39129;BME280;24864;49.940;19.770;2022-09-09T06:21:23;97944.75;;;17.08;100.00
39129;BME280;24864;49.940;19.770;2022-09-09T06:23:51;97946.34;;;17.09;100.00
39129;BME280;24864;49.940;19.770;2022-09-09T06:26:27;97944.75;;;17.19;100.00
39129;BME280;24864;49.940;19.770;2022-09-09T06:28:55;97943.97;;;17.44;100.00
39129;BME280;24864;49.940;19.770;2022-09-09T06:31:25;97943.97;;;17.58;100.00
39129;BME280;24864;49.940;19.770;2022-09-09T06:33:58;97945.13;;;17.57;100.00
39129;BME280;24864;49.940;19.770;2022-09-09T06:36:27;97933.72;;;17.62;100.00
39129;BME280;24864;49.940;19.770;2022-09-09T06:38:55;97940.00;;;17.66;100.00
39129;BME280;24864;49.940;19.770;2022-09-09T06:41:27;97930.56;;;17.75;100.00
39129;BME280;24864;49.940;19.770;2022-09-09T06:43:55;97935.69;;;17.58;100.00
39129;BME280;24864;49.940;19.770;2022-09-09T06:46:25;97927.41;;;17.58;100.00
39129;BME280;24864;49.940;19.770;2022-09-09T06:48:55;97937.66;;;17.69;100.00
39129;BME280;24864;49.940;19.770;2022-09-09T06:51:27;97935.28;;;17.63;100.00
39129;BME280;24864;49.940;19.770;2022-09-09T06:53:56;97929.41;;;17.47;100.00
39129;BME280;24864;49.940;19.770;2022-09-09T06:56:27;97931.31;;;17.75;100.00
39129;BME280;24864;49.940;19.770;2022-09-09T06:58:57;97924.22;;;17.85;100.00
39129;BME280;24864;49.940;19.770;2022-09-09T07:01:28;97927.34;;;17.91;100.00
39129;BME280;24864;49.940;19.770;2022-09-09T07:03:58;97927.38;;;17.98;100.00
39129;BME280;24864;49.940;19.770;2022-09-09T07:06:27;97929.28;;;18.12;100.00
39129;BME280;24864;49.940;19.770;2022-09-09T07:08:58;97928.47;;;18.11;100.00
39129;BME280;24864;49.940;19.770;2022-09-09T07:11:28;97935.13;;;18.28;100.00
39129;BME280;24864;49.940;19.770;2022-09-09T07:13:58;97935.47;;;18.38;100.00
39129;BME280;24864;49.940;19.770;2022-09-09T07:16:27;97933.50;;;18.38;100.00
39129;BME280;24864;49.940;19.770;2022-09-09T07:18:56;97935.00;;;18.54;100.00
39129;BME280;24864;49.940;19.770;2022-09-09T07:21:25;97933.34;;;18.71;100.00
39129;BME280;24864;49.940;19.770;2022-09-09T07:23:54;97924.66;;;18.69;100.00
39129;BME280;24864;49.940;19.770;2022-09-09T07:26:24;97921.53;;;18.63;100.00
39129;BME280;24864;49.940;19.770;2022-09-09T07:28:53;97916.91;;;18.45;100.00
39129;BME280;24864;49.940;19.770;2022-09-09T07:31:24;97928.78;;;18.39;100.00
39129;BME280;24864;49.940;19.770;2022-09-09T07:33:53;97929.44;;;18.61;100.00
39129;BME280;24864;49.940;19.770;2022-09-09T07:36:22;97938.81;;;18.78;100.00
39129;BME280;24864;49.940;19.770;2022-09-09T07:38:56;97934.00;;;18.89;100.00
39129;BME280;24864;49.940;19.770;2022-09-09T07:41:25;97939.13;;;18.94;100.00
39129;BME280;24864;49.940;19.770;2022-09-09T07:43:54;97939.53;;;18.89;100.00
39129;BME280;24864;49.940;19.770;2022-09-09T07:46:25;97947.31;;;19.09;100.00
39129;BME280;24864;49.940;19.770;2022-09-09T07:48:55;97941.91;;;18.87;100.00
39129;BME280;24864;49.940;19.770;2022-09-09T07:51:25;97940.91;;;19.19;100.00
39129;BME280;24864;49.940;19.770;2022-09-09T07:53:56;97939.16;;;19.40;100.00
39129;BME280;24864;49.940;19.770;2022-09-09T07:56:26;97945.81;;;19.46;100.00
39129;BME280;24864;49.940;19.770;2022-09-09T07:58:56;97946.81;;;19.67;100.00
39129;BME280;24864;49.940;19.770;2022-09-09T08:01:27;97949.31;;;19.54;100.00
39129;BME280;24864;49.940;19.770;2022-09-09T08:03:57;97947.34;;;19.54;100.00
39129;BME280;24864;49.940;19.770;2022-09-09T08:06:29;97950.84;;;19.58;100.00
39129;BME280;24864;49.940;19.770;2022-09-09T08:08:57;97950.66;;;19.80;100.00
39129;BME280;24864;49.940;19.770;2022-09-09T08:11:28;97956.19;;;19.80;100.00
39129;BME280;24864;49.940;19.770;2022-09-09T08:14:03;97956.19;;;19.80;100.00
39129;BME280;24864;49.940;19.770;2022-09-09T08:16:32;97961.94;;;20.00;100.00
39129;BME280;24864;49.940;19.770;2022-09-09T08:19:03;97964.09;;;19.78;100.00
39129;BME280;24864;49.940;19.770;2022-09-09T08:21:32;97953.94;;;20.10;100.00
39129;BME280;24864;49.940;19.770;2022-09-09T08:24:01;97967.59;;;20.24;100.00
39129;BME280;24864;49.940;19.770;2022-09-09T08:26:31;97959.97;;;20.01;100.00
39129;BME280;24864;49.940;19.770;2022-09-09T08:29:00;97960.22;;;20.10;100.00
39129;BME280;24864;49.940;19.770;2022-09-09T08:31:32;97958.16;;;20.18;100.00
39129;BME280;24864;49.940;19.770;2022-09-09T08:34:01;97955.34;;;20.21;100.00
39129;BME280;24864;49.940;19.770;2022-09-09T08:36:33;97958.03;;;20.29;100.00
39129;BME280;24864;49.940;19.770;2022-09-09T08:39:01;97961.59;;;20.29;100.00
39129;BME280;24864;49.940;19.770;2022-09-09T08:41:51;97973.75;;;20.39;100.00
39129;BME280;24864;49.940;19.770;2022-09-09T08:44:30;97976.16;;;20.37;100.00
39129;BME280;24864;49.940;19.770;2022-09-09T08:47:09;97969.75;;;20.40;100.00
39129;BME280;24864;49.940;19.770;2022-09-09T08:49:51;97970.34;;;20.59;100.00
39129;BME280;24864;49.940;19.770;2022-09-09T08:52:25;97968.94;;;20.43;100.00
39129;BME280;24864;49.940;19.770;2022-09-09T08:54:58;97977.91;;;20.54;100.00
39129;BME280;24864;49.940;19.770;2022-09-09T08:57:30;97976.78;;;20.48;100.00
39129;BME280;24864;49.940;19.770;2022-09-09T08:59:59;97974.50;;;20.74;100.00
39129;BME280;24864;49.940;19.770;2022-09-09T09:02:36;97977.41;;;21.22;100.00
39129;BME280;24864;49.940;19.770;2022-09-09T09:05:16;97987.88;;;21.34;100.00
39129;BME280;24864;49.940;19.770;2022-09-09T09:07:55;97987.25;;;21.50;100.00
39129;BME280;24864;49.940;19.770;2022-09-09T09:10:40;97974.97;;;21.24;100.00
39129;BME280;24864;49.940;19.770;2022-09-09T09:13:14;97965.88;;;21.23;100.00
39129;BME280;24864;49.940;19.770;2022-09-09T09:15:46;97968.75;;;21.16;100.00
39129;BME280;24864;49.940;19.770;2022-09-09T09:18:17;97965.78;;;21.78;100.00
39129;BME280;24864;49.940;19.770;2022-09-09T09:20:50;97972.41;;;21.84;100.00
39129;BME280;24864;49.940;19.770;2022-09-09T09:23:24;97974.06;;;21.81;100.00
39129;BME280;24864;49.940;19.770;2022-09-09T09:25:56;97968.22;;;21.96;100.00
39129;BME280;24864;49.940;19.770;2022-09-09T09:28:29;97966.88;;;22.24;100.00
39129;BME280;24864;49.940;19.770;2022-09-09T09:30:59;97973.75;;;22.40;100.00
39129;BME280;24864;49.940;19.770;2022-09-09T09:33:36;97964.84;;;22.49;100.00
39129;BME280;24864;49.940;19.770;2022-09-09T09:36:07;97964.13;;;22.44;100.00
39129;BME280;24864;49.940;19.770;2022-09-09T09:38:36;97963.97;;;22.11;100.00
39129;BME280;24864;49.940;19.770;2022-09-09T09:41:32;97963.78;;;22.42;100.00
39129;BME280;24864;49.940;19.770;2022-09-09T09:44:03;97968.91;;;22.81;100.00
39129;BME280;24864;49.940;19.770;2022-09-09T09:46:32;97965.13;;;22.91;95.30
39129;BME280;24864;49.940;19.770;2022-09-09T09:49:03;97961.56;;;22.54;89.61
39129;BME280;24864;49.940;19.770;2022-09-09T09:51:33;97960.06;;;22.86;91.67
39129;BME280;24864;49.940;19.770;2022-09-09T09:54:22;97973.56;;;22.67;93.07
39129;BME280;24864;49.940;19.770;2022-09-09T09:56:52;97963.88;;;22.92;96.13
39129;BME280;24864;49.940;19.770;2022-09-09T09:59:23;97951.63;;;23.42;91.72
39129;BME280;24864;49.940;19.770;2022-09-09T10:02:14;97952.75;;;23.91;90.13
39129;BME280;24864;49.940;19.770;2022-09-09T10:04:44;97952.94;;;24.00;89.65
39129;BME280;24864;49.940;19.770;2022-09-09T10:07:17;97943.38;;;23.85;92.65
39129;BME280;24864;49.940;19.770;2022-09-09T10:09:50;97954.78;;;23.74;89.05
39129;BME280;24864;49.940;19.770;2022-09-09T10:12:28;97953.78;;;23.18;94.82
39129;BME280;24864;49.940;19.770;2022-09-09T10:15:02;97966.81;;;22.68;98.52
39129;BME280;24864;49.940;19.770;2022-09-09T10:17:42;97969.59;;;22.08;98.93
39129;BME280;24864;49.940;19.770;2022-09-09T10:20:27;97960.84;;;21.65;99.92
39129;BME280;24864;49.940;19.770;2022-09-09T10:23:17;97959.72;;;21.35;100.00
39129;BME280;24864;49.940;19.770;2022-09-09T10:26:07;97963.41;;;21.29;100.00
39129;BME280;24864;49.940;19.770;2022-09-09T10:28:55;97959.78;;;21.32;100.00
39129;BME280;24864;49.940;19.770;2022-09-09T10:31:32;97968.50;;;21.58;100.00
39129;BME280;24864;49.940;19.770;2022-09-09T10:34:15;97972.25;;;21.91;100.00
39129;BME280;24864;49.940;19.770;2022-09-09T10:36:49;97975.34;;;22.77;96.45
39129;BME280;24864;49.940;19.770;2022-09-09T10:39:31;97973.00;;;23.46;88.03
39129;BME280;24864;49.940;19.770;2022-09-09T10:42:09;97970.34;;;24.17;84.51
39129;BME280;24864;49.940;19.770;2022-09-09T10:44:52;97963.38;;;24.81;83.48
39129;BME280;24864;49.940;19.770;2022-09-09T10:47:38;97968.09;;;24.42;81.75
39129;BME280;24864;49.940;19.770;2022-09-09T10:50:29;97966.13;;;24.13;80.61
39129;BME280;24864;49.940;19.770;2022-09-09T10:53:33;97980.59;;;23.91;78.84
39129;BME280;24864;49.940;19.770;2022-09-09T10:56:07;97974.19;;;24.79;79.63
39129;BME280;24864;49.940;19.770;2022-09-09T10:58:39;97964.09;;;24.43;74.04
39129;BME280;24864;49.940;19.770;2022-09-09T11:01:15;97961.06;;;24.37;76.19
39129;BME280;24864;49.940;19.770;2022-09-09T11:03:47;97965.50;;;24.77;73.47
39129;BME280;24864;49.940;19.770;2022-09-09T11:06:19;97959.09;;;25.54;69.10
39129;BME280;24864;49.940;19.770;2022-09-09T11:08:51;97972.38;;;25.97;69.07
39129;BME280;24864;49.940;19.770;2022-09-09T11:11:29;97976.78;;;26.43;64.23
39129;BME280;24864;49.940;19.770;2022-09-09T11:14:01;97977.81;;;26.81;64.75
39129;BME280;24864;49.940;19.770;2022-09-09T11:16:38;97977.09;;;26.99;61.84
39129;BME280;24864;49.940;19.770;2022-09-09T11:19:15;97970.53;;;26.61;67.45
39129;BME280;24864;49.940;19.770;2022-09-09T11:21:46;97962.03;;;26.74;65.56
39129;BME280;24864;49.940;19.770;2022-09-09T11:24:21;97969.09;;;26.56;66.26
39129;BME280;24864;49.940;19.770;2022-09-09T11:26:54;97970.81;;;26.32;65.96
39129;BME280;24864;49.940;19.770;2022-09-09T11:29:41;97973.78;;;26.15;65.00
39129;BME280;24864;49.940;19.770;2022-09-09T11:32:25;97971.47;;;24.62;72.77
39129;BME280;24864;49.940;19.770;2022-09-09T11:35:04;97966.59;;;24.24;74.35
39129;BME280;24864;49.940;19.770;2022-09-09T11:37:50;97973.09;;;24.04;73.13
39129;BME280;24864;49.940;19.770;2022-09-09T11:40:24;97968.91;;;24.13;72.96
39129;BME280;24864;49.940;19.770;2022-09-09T11:43:03;97958.38;;;25.01;66.93
39129;BME280;24864;49.940;19.770;2022-09-09T11:45:34;97962.13;;;25.59;62.71
39129;BME280;24864;49.940;19.770;2022-09-09T11:48:04;97956.28;;;25.66;61.69
39129;BME280;24864;49.940;19.770;2022-09-09T11:50:35;97965.31;;;26.06;59.35
39129;BME280;24864;49.940;19.770;2022-09-09T11:53:16;97969.38;;;26.27;62.02
39129;BME280;24864;49.940;19.770;2022-09-09T11:56:03;97973.16;;;26.87;54.05
39129;BME280;24864;49.940;19.770;2022-09-09T11:58:37;97964.50;;;26.18;53.92
39129;BME280;24864;49.940;19.770;2022-09-09T12:01:30;97959.06;;;26.46;53.36
39129;BME280;24864;49.940;19.770;2022-09-09T12:06:58;97965.03;;;25.17;57.76
39129;BME280;24864;49.940;19.770;2022-09-09T12:09:32;97965.53;;;25.02;58.25
39129;BME280;24864;49.940;19.770;2022-09-09T12:12:07;97958.56;;;25.46;57.42
39129;BME280;24864;49.940;19.770;2022-09-09T12:14:37;97967.09;;;25.04;58.13
39129;BME280;24864;49.940;19.770;2022-09-09T12:17:15;97967.78;;;25.69;54.74
39129;BME280;24864;49.940;19.770;2022-09-09T12:19:46;97963.44;;;25.68;58.37
39129;BME280;24864;49.940;19.770;2022-09-09T12:22:23;97966.63;;;25.79;56.51
39129;BME280;24864;49.940;19.770;2022-09-09T12:25:00;97966.81;;;26.42;54.45
39129;BME280;24864;49.940;19.770;2022-09-09T12:27:40;97960.38;;;26.54;56.01
39129;BME280;24864;49.940;19.770;2022-09-09T12:30:15;97961.78;;;25.57;57.71
39129;BME280;24864;49.940;19.770;2022-09-09T12:32:43;97964.38;;;25.39;61.25
39129;BME280;24864;49.940;19.770;2022-09-09T12:35:18;97964.03;;;25.85;57.35
39129;BME280;24864;49.940;19.770;2022-09-09T12:37:50;97957.03;;;25.19;57.54
39129;BME280;24864;49.940;19.770;2022-09-09T12:40:22;97954.56;;;24.82;61.62
39129;BME280;24864;49.940;19.770;2022-09-09T12:42:52;97961.50;;;25.04;60.39
39129;BME280;24864;49.940;19.770;2022-09-09T12:45:23;97959.16;;;25.15;57.85
39129;BME280;24864;49.940;19.770;2022-09-09T12:47:55;97970.63;;;25.43;56.67
39129;BME280;24864;49.940;19.770;2022-09-09T12:50:27;97973.75;;;25.45;55.79
39129;BME280;24864;49.940;19.770;2022-09-09T12:52:58;97972.69;;;26.12;56.09
39129;BME280;24864;49.940;19.770;2022-09-09T12:55:29;97968.69;;;26.67;54.21
39129;BME280;24864;49.940;19.770;2022-09-09T12:58:02;97947.19;;;26.86;52.91
39129;BME280;24864;49.940;19.770;2022-09-09T13:00:33;97951.41;;;26.91;53.72
39129;BME280;24864;49.940;19.770;2022-09-09T13:03:15;97950.53;;;26.18;50.99
39129;BME280;24864;49.940;19.770;2022-09-09T13:05:44;97946.81;;;26.21;52.42
39129;BME280;24864;49.940;19.770;2022-09-09T13:08:15;97940.47;;;25.50;53.28
39129;BME280;24864;49.940;19.770;2022-09-09T13:10:48;97939.47;;;25.31;56.74
39129;BME280;24864;49.940;19.770;2022-09-09T13:13:27;97938.94;;;24.85;59.89